sensor_id;sensor_type;location;lat;lon;timestamp;P1;durP1;ratioP1;P2;durP2;ratioP2
62523;SDS011;53689;56.878;60.672;2022-09-01T00:00:24;17.73;;;13.82;;
62523;SDS011;53689;56.878;60.672;2022-09-01T00:02:51;22.70;;;17.63;;
62523;SDS011;53689;56.878;60.672;2022-09-01T00:05:19;23.67;;;16.98;;
62523;SDS011;53689;56.878;60.672;2022-09-01T00:07:48;20.38;;;14.57;;
62523;SDS011;53689;56.878;60.672;2022-09-01T00:10:15;18.52;;;13.27;;
62523;SDS011;53689;56.878;60.672;2022-09-01T00:12:43;16.63;;;12.90;;
62523;SDS011;53689;56.878;60.672;2022-09-01T00:15:10;16.40;;;11.90;;
62523;SDS011;53689;56.878;60.672;2022-09-01T00:17:39;13.45;;;11.23;;
62523;SDS011;53689;56.878;60.672;2022-09-01T00:20:06;17.00;;;12.13;;
62523;SDS011;53689;56.878;60.672;2022-09-01T00:22:35;19.63;;;12.10;;
62523;SDS011;53689;56.878;60.672;2022-09-01T00:25:04;16.70;;;11.25;;
62523;SDS011;53689;56.878;60.672;2022-09-01T00:27:32;16.15;;;11.73;;
62523;SDS011;53689;56.878;60.672;2022-09-01T00:30:00;13.23;;;10.48;;
62523;SDS011;53689;56.878;60.672;2022-09-01T00:32:27;15.82;;;10.57;;
62523;SDS011;53689;56.878;60.672;2022-09-01T00:34:55;16.00;;;11.10;;
62523;SDS011;53689;56.878;60.672;2022-09-01T00:37:22;13.73;;;10.68;;
62523;SDS011;53689;56.878;60.672;2022-09-01T00:39:50;14.30;;;9.85;;
62523;SDS011;53689;56.878;60.672;2022-09-01T00:42:18;13.63;;;9.63;;
62523;SDS011;53689;56.878;60.672;2022-09-01T00:44:46;13.40;;;8.77;;
62523;SDS011;53689;56.878;60.672;2022-09-01T00:47:13;12.50;;;9.57;;
62523;SDS011;53689;56.878;60.672;2022-09-01T00:49:44;11.77;;;9.02;;
62523;SDS011;53689;56.878;60.672;2022-09-01T00:52:18;14.68;;;10.05;;
62523;SDS011;53689;56.878;60.672;2022-09-01T00:54:52;12.82;;;9.00;;
62523;SDS011;53689;56.878;60.672;2022-09-01T00:57:24;12.43;;;8.07;;
62523;SDS011;53689;56.878;60.672;2022-09-01T00:59:54;9.35;;;7.40;;
62523;SDS011;53689;56.878;60.672;2022-09-01T01:02:24;10.13;;;7.80;;
62523;SDS011;53689;56.878;60.672;2022-09-01T01:04:52;11.65;;;8.02;;
62523;SDS011;53689;56.878;60.672;2022-09-01T01:07:19;13.48;;;8.10;;
62523;SDS011;53689;56.878;60.672;2022-09-01T01:09:48;10.77;;;7.60;;
62523;SDS011;53689;56.878;60.672;2022-09-01T01:12:17;9.52;;;6.35;;
62523;SDS011;53689;56.878;60.672;2022-09-01T01:14:47;7.95;;;6.18;;
62523;SDS011;53689;56.878;60.672;2022-09-01T01:17:18;9.57;;;6.28;;
62523;SDS011;53689;56.878;60.672;2022-09-01T01:19:47;7.85;;;6.18;;
62523;SDS011;53689;56.878;60.672;2022-09-01T01:22:21;8.15;;;6.40;;
62523;SDS011;53689;56.878;60.672;2022-09-01T01:24:55;7.90;;;5.50;;
62523;SDS011;53689;56.878;60.672;2022-09-01T01:27:23;7.32;;;5.50;;
62523;SDS011;53689;56.878;60.672;2022-09-01T01:29:51;8.63;;;5.40;;
62523;SDS011;53689;56.878;60.672;2022-09-01T01:32:19;7.90;;;5.82;;
62523;SDS011;53689;56.878;60.672;2022-09-01T01:34:46;7.50;;;5.78;;
62523;SDS011;53689;56.878;60.672;2022-09-01T01:37:14;7.20;;;5.57;;
62523;SDS011;53689;56.878;60.672;2022-09-01T01:39:42;10.10;;;5.78;;
62523;SDS011;53689;56.878;60.672;2022-09-01T01:42:11;10.95;;;8.48;;
62523;SDS011;53689;56.878;60.672;2022-09-01T01:44:38;9.00;;;6.47;;
62523;SDS011;53689;56.878;60.672;2022-09-01T01:47:08;9.80;;;6.50;;
62523;SDS011;53689;56.878;60.672;2022-09-01T01:49:39;10.57;;;7.78;;
62523;SDS011;53689;56.878;60.672;2022-09-01T01:52:07;9.38;;;7.88;;
62523;SDS011;53689;56.878;60.672;2022-09-01T01:54:35;12.20;;;9.10;;
62523;SDS011;53689;56.878;60.672;2022-09-01T01:57:03;11.55;;;9.43;;
62523;SDS011;53689;56.878;60.672;2022-09-01T01:59:32;20.67;;;9.95;;
62523;SDS011;53689;56.878;60.672;2022-09-01T02:02:00;17.92;;;10.05;;
62523;SDS011;53689;56.878;60.672;2022-09-01T02:04:27;17.08;;;9.10;;
62523;SDS011;53689;56.878;60.672;2022-09-01T02:06:55;13.05;;;8.70;;
62523;SDS011;53689;56.878;60.672;2022-09-01T02:09:22;8.30;;;7.00;;
62523;SDS011;53689;56.878;60.672;2022-09-01T02:11:50;16.67;;;6.90;;
62523;SDS011;53689;56.878;60.672;2022-09-01T02:14:18;8.15;;;5.30;;
62523;SDS011;53689;56.878;60.672;2022-09-01T02:16:47;7.13;;;5.00;;
62523;SDS011;53689;56.878;60.672;2022-09-01T02:19:15;7.70;;;4.72;;
62523;SDS011;53689;56.878;60.672;2022-09-01T02:21:42;8.80;;;5.32;;
62523;SDS011;53689;56.878;60.672;2022-09-01T02:24:10;7.63;;;4.65;;
62523;SDS011;53689;56.878;60.672;2022-09-01T02:26:38;6.30;;;4.20;;
62523;SDS011;53689;56.878;60.672;2022-09-01T02:29:11;8.68;;;5.15;;
62523;SDS011;53689;56.878;60.672;2022-09-01T02:31:40;5.93;;;4.40;;
62523;SDS011;53689;56.878;60.672;2022-09-01T02:34:09;7.72;;;4.43;;
62523;SDS011;53689;56.878;60.672;2022-09-01T02:36:37;7.38;;;4.50;;
62523;SDS011;53689;56.878;60.672;2022-09-01T02:39:04;10.07;;;6.88;;
62523;SDS011;53689;56.878;60.672;2022-09-01T02:41:33;7.95;;;5.65;;
62523;SDS011;53689;56.878;60.672;2022-09-01T02:44:01;16.75;;;14.02;;
62523;SDS011;53689;56.878;60.672;2022-09-01T02:46:30;8.98;;;6.07;;
62523;SDS011;53689;56.878;60.672;2022-09-01T02:48:58;7.15;;;4.93;;
62523;SDS011;53689;56.878;60.672;2022-09-01T02:51:27;8.68;;;5.45;;
62523;SDS011;53689;56.878;60.672;2022-09-01T02:53:54;8.32;;;5.60;;
62523;SDS011;53689;56.878;60.672;2022-09-01T02:56:23;8.30;;;5.53;;
62523;SDS011;53689;56.878;60.672;2022-09-01T02:58:53;7.53;;;5.07;;
62523;SDS011;53689;56.878;60.672;2022-09-01T03:01:23;11.25;;;6.07;;
62523;SDS011;53689;56.878;60.672;2022-09-01T03:03:53;10.45;;;6.78;;
62523;SDS011;53689;56.878;60.672;2022-09-01T03:06:22;14.93;;;10.18;;
62523;SDS011;53689;56.878;60.672;2022-09-01T03:08:53;27.98;;;8.25;;
62523;SDS011;53689;56.878;60.672;2022-09-01T03:11:22;22.65;;;8.80;;
62523;SDS011;53689;56.878;60.672;2022-09-01T03:13:50;14.93;;;8.27;;
62523;SDS011;53689;56.878;60.672;2022-09-01T03:16:18;10.32;;;6.45;;
62523;SDS011;53689;56.878;60.672;2022-09-01T03:18:45;13.65;;;6.65;;
62523;SDS011;53689;56.878;60.672;2022-09-01T03:21:13;9.38;;;6.20;;
62523;SDS011;53689;56.878;60.672;2022-09-01T03:23:42;11.23;;;6.85;;
62523;SDS011;53689;56.878;60.672;2022-09-01T03:26:12;12.93;;;7.93;;
62523;SDS011;53689;56.878;60.672;2022-09-01T03:28:40;13.60;;;7.50;;
62523;SDS011;53689;56.878;60.672;2022-09-01T03:31:09;19.93;;;10.00;;
62523;SDS011;53689;56.878;60.672;2022-09-01T03:33:37;17.88;;;10.43;;
62523;SDS011;53689;56.878;60.672;2022-09-01T03:36:10;15.98;;;9.35;;
62523;SDS011;53689;56.878;60.672;2022-09-01T03:38:41;12.73;;;9.23;;
62523;SDS011;53689;56.878;60.672;2022-09-01T03:41:09;16.65;;;8.82;;
62523;SDS011;53689;56.878;60.672;2022-09-01T03:43:38;18.58;;;8.73;;
62523;SDS011;53689;56.878;60.672;2022-09-01T03:46:13;15.48;;;7.72;;
62523;SDS011;53689;56.878;60.672;2022-09-01T03:48:42;16.05;;;8.05;;
62523;SDS011;53689;56.878;60.672;2022-09-01T03:51:09;14.27;;;7.57;;
62523;SDS011;53689;56.878;60.672;2022-09-01T03:53:37;18.05;;;7.93;;
62523;SDS011;53689;56.878;60.672;2022-09-01T03:56:04;11.35;;;8.65;;
62523;SDS011;53689;56.878;60.672;2022-09-01T03:58:32;14.85;;;9.48;;
62523;SDS011;53689;56.878;60.672;2022-09-01T04:01:02;22.17;;;12.25;;
62523;SDS011;53689;56.878;60.672;2022-09-01T04:03:33;40.40;;;13.07;;
62523;SDS011;53689;56.878;60.672;2022-09-01T04:06:02;20.17;;;9.37;;
62523;SDS011;53689;56.878;60.672;2022-09-01T04:08:32;17.40;;;8.82;;
62523;SDS011;53689;56.878;60.672;2022-09-01T04:11:02;14.38;;;9.32;;
62523;SDS011;53689;56.878;60.672;2022-09-01T04:13:34;16.80;;;9.43;;
62523;SDS011;53689;56.878;60.672;2022-09-01T04:16:05;32.58;;;12.68;;
62523;SDS011;53689;56.878;60.672;2022-09-01T04:18:32;42.13;;;14.80;;
62523;SDS011;53689;56.878;60.672;2022-09-01T04:21:01;29.98;;;12.88;;
62523;SDS011;53689;56.878;60.672;2022-09-01T04:23:29;21.05;;;10.00;;
62523;SDS011;53689;56.878;60.672;2022-09-01T04:26:05;17.58;;;9.57;;
62523;SDS011;53689;56.878;60.672;2022-09-01T04:28:37;19.73;;;9.25;;
62523;SDS011;53689;56.878;60.672;2022-09-01T04:33:37;12.07;;;9.18;;
62523;SDS011;53689;56.878;60.672;2022-09-01T04:38:40;22.20;;;9.77;;
62523;SDS011;53689;56.878;60.672;2022-09-01T04:41:08;15.90;;;9.05;;
62523;SDS011;53689;56.878;60.672;2022-09-01T04:43:35;14.50;;;9.13;;
62523;SDS011;53689;56.878;60.672;2022-09-01T04:46:03;18.48;;;8.88;;
62523;SDS011;53689;56.878;60.672;2022-09-01T04:48:32;13.85;;;8.68;;
62523;SDS011;53689;56.878;60.672;2022-09-01T04:51:05;22.80;;;9.02;;
62523;SDS011;53689;56.878;60.672;2022-09-01T04:53:47;11.20;;;7.93;;
62523;SDS011;53689;56.878;60.672;2022-09-01T04:56:16;11.52;;;7.43;;
62523;SDS011;53689;56.878;60.672;2022-09-01T05:01:22;14.35;;;7.93;;
62523;SDS011;53689;56.878;60.672;2022-09-01T05:03:53;16.55;;;8.60;;
62523;SDS011;53689;56.878;60.672;2022-09-01T05:06:38;14.27;;;8.30;;
62523;SDS011;53689;56.878;60.672;2022-09-01T05:09:07;11.88;;;8.07;;
62523;SDS011;53689;56.878;60.672;2022-09-01T05:12:05;16.55;;;8.20;;
62523;SDS011;53689;56.878;60.672;2022-09-01T05:14:33;13.73;;;8.00;;
62523;SDS011;53689;56.878;60.672;2022-09-01T05:17:01;11.40;;;7.95;;
62523;SDS011;53689;56.878;60.672;2022-09-01T05:19:29;19.13;;;7.78;;
62523;SDS011;53689;56.878;60.672;2022-09-01T05:21:59;211.30;;;25.17;;
62523;SDS011;53689;56.878;60.672;2022-09-01T05:24:27;359.73;;;38.72;;
62523;SDS011;53689;56.878;60.672;2022-09-01T05:26:58;120.20;;;18.02;;
62523;SDS011;53689;56.878;60.672;2022-09-01T05:29:26;90.25;;;14.63;;
62523;SDS011;53689;56.878;60.672;2022-09-01T05:31:55;67.63;;;13.85;;
62523;SDS011;53689;56.878;60.672;2022-09-01T05:34:24;77.80;;;15.27;;
62523;SDS011;53689;56.878;60.672;2022-09-01T05:36:55;188.80;;;22.08;;
62523;SDS011;53689;56.878;60.672;2022-09-01T05:39:24;108.38;;;16.67;;
62523;SDS011;53689;56.878;60.672;2022-09-01T05:41:52;49.00;;;13.65;;
62523;SDS011;53689;56.878;60.672;2022-09-01T05:44:20;35.55;;;12.07;;
62523;SDS011;53689;56.878;60.672;2022-09-01T05:46:50;30.55;;;12.23;;
62523;SDS011;53689;56.878;60.672;2022-09-01T05:49:18;36.70;;;11.68;;
62523;SDS011;53689;56.878;60.672;2022-09-01T05:51:48;31.85;;;12.02;;
62523;SDS011;53689;56.878;60.672;2022-09-01T05:54:22;30.50;;;10.95;;
62523;SDS011;53689;56.878;60.672;2022-09-01T05:56:52;24.38;;;11.55;;
62523;SDS011;53689;56.878;60.672;2022-09-01T05:59:24;49.60;;;15.57;;
62523;SDS011;53689;56.878;60.672;2022-09-01T06:02:14;66.32;;;18.10;;
62523;SDS011;53689;56.878;60.672;2022-09-01T06:04:42;58.65;;;19.77;;
62523;SDS011;53689;56.878;60.672;2022-09-01T06:07:14;66.10;;;20.95;;
62523;SDS011;53689;56.878;60.672;2022-09-01T06:09:49;75.82;;;23.23;;
62523;SDS011;53689;56.878;60.672;2022-09-01T06:12:19;55.88;;;19.85;;
62523;SDS011;53689;56.878;60.672;2022-09-01T06:14:47;52.08;;;21.02;;
62523;SDS011;53689;56.878;60.672;2022-09-01T06:17:17;37.50;;;17.83;;
62523;SDS011;53689;56.878;60.672;2022-09-01T06:19:45;43.10;;;17.87;;
62523;SDS011;53689;56.878;60.672;2022-09-01T06:22:14;28.80;;;15.95;;
62523;SDS011;53689;56.878;60.672;2022-09-01T06:24:42;31.58;;;16.73;;
62523;SDS011;53689;56.878;60.672;2022-09-01T06:27:14;29.63;;;15.10;;
62523;SDS011;53689;56.878;60.672;2022-09-01T06:29:41;25.20;;;15.27;;
62523;SDS011;53689;56.878;60.672;2022-09-01T06:32:10;26.58;;;14.75;;
62523;SDS011;53689;56.878;60.672;2022-09-01T06:34:38;22.25;;;13.80;;
62523;SDS011;53689;56.878;60.672;2022-09-01T06:39:35;21.10;;;15.15;;
62523;SDS011;53689;56.878;60.672;2022-09-01T06:42:03;23.15;;;15.02;;
62523;SDS011;53689;56.878;60.672;2022-09-01T06:44:46;23.30;;;15.32;;
62523;SDS011;53689;56.878;60.672;2022-09-01T06:49:41;22.20;;;14.75;;
62523;SDS011;53689;56.878;60.672;2022-09-01T06:52:14;20.65;;;15.68;;
62523;SDS011;53689;56.878;60.672;2022-09-01T06:54:42;24.40;;;15.50;;
62523;SDS011;53689;56.878;60.672;2022-09-01T06:57:10;25.65;;;15.98;;
62523;SDS011;53689;56.878;60.672;2022-09-01T07:00:01;23.10;;;16.52;;
62523;SDS011;53689;56.878;60.672;2022-09-01T07:02:29;32.97;;;21.95;;
62523;SDS011;53689;56.878;60.672;2022-09-01T07:05:14;38.42;;;27.92;;
62523;SDS011;53689;56.878;60.672;2022-09-01T07:08:02;25.45;;;20.17;;
62523;SDS011;53689;56.878;60.672;2022-09-01T07:10:51;26.48;;;17.88;;
62523;SDS011;53689;56.878;60.672;2022-09-01T07:13:39;28.88;;;18.60;;
62523;SDS011;53689;56.878;60.672;2022-09-01T07:16:31;28.95;;;18.85;;
62523;SDS011;53689;56.878;60.672;2022-09-01T07:19:08;32.25;;;19.95;;
62523;SDS011;53689;56.878;60.672;2022-09-01T07:21:36;46.97;;;20.33;;
62523;SDS011;53689;56.878;60.672;2022-09-01T07:24:08;45.40;;;20.55;;
62523;SDS011;53689;56.878;60.672;2022-09-01T07:26:42;39.50;;;20.67;;
62523;SDS011;53689;56.878;60.672;2022-09-01T07:29:13;53.50;;;24.30;;
62523;SDS011;53689;56.878;60.672;2022-09-01T07:31:42;59.40;;;25.55;;
62523;SDS011;53689;56.878;60.672;2022-09-01T07:34:31;40.10;;;21.65;;
62523;SDS011;53689;56.878;60.672;2022-09-01T07:37:07;47.88;;;24.80;;
62523;SDS011;53689;56.878;60.672;2022-09-01T07:39:55;46.17;;;22.77;;
62523;SDS011;53689;56.878;60.672;2022-09-01T07:42:42;48.55;;;27.08;;
62523;SDS011;53689;56.878;60.672;2022-09-01T07:45:49;43.28;;;23.95;;
62523;SDS011;53689;56.878;60.672;2022-09-01T07:51:27;41.85;;;25.92;;
62523;SDS011;53689;56.878;60.672;2022-09-01T07:54:05;44.85;;;25.67;;
62523;SDS011;53689;56.878;60.672;2022-09-01T07:56:33;37.35;;;23.02;;
62523;SDS011;53689;56.878;60.672;2022-09-01T07:59:08;35.42;;;22.20;;
62523;SDS011;53689;56.878;60.672;2022-09-01T08:02:01;34.88;;;22.05;;
62523;SDS011;53689;56.878;60.672;2022-09-01T08:04:30;35.70;;;22.52;;
62523;SDS011;53689;56.878;60.672;2022-09-01T08:06:58;37.50;;;22.08;;
62523;SDS011;53689;56.878;60.672;2022-09-01T08:09:27;36.27;;;22.13;;
62523;SDS011;53689;56.878;60.672;2022-09-01T08:12:05;37.65;;;22.90;;
62523;SDS011;53689;56.878;60.672;2022-09-01T08:14:52;34.35;;;20.80;;
62523;SDS011;53689;56.878;60.672;2022-09-01T08:17:40;33.13;;;20.33;;
62523;SDS011;53689;56.878;60.672;2022-09-01T08:20:20;36.53;;;22.00;;
62523;SDS011;53689;56.878;60.672;2022-09-01T08:22:54;35.80;;;22.05;;
62523;SDS011;53689;56.878;60.672;2022-09-01T08:25:25;37.20;;;23.00;;
62523;SDS011;53689;56.878;60.672;2022-09-01T08:27:53;33.67;;;22.08;;
62523;SDS011;53689;56.878;60.672;2022-09-01T08:30:28;34.83;;;21.95;;
62523;SDS011;53689;56.878;60.672;2022-09-01T08:32:57;35.75;;;22.42;;
62523;SDS011;53689;56.878;60.672;2022-09-01T08:35:26;35.60;;;23.25;;
62523;SDS011;53689;56.878;60.672;2022-09-01T08:37:57;38.42;;;24.33;;
62523;SDS011;53689;56.878;60.672;2022-09-01T08:40:25;46.87;;;27.30;;
62523;SDS011;53689;56.878;60.672;2022-09-01T08:42:55;43.63;;;24.25;;
62523;SDS011;53689;56.878;60.672;2022-09-01T08:45:33;43.35;;;26.00;;
62523;SDS011;53689;56.878;60.672;2022-09-01T08:48:12;43.05;;;25.23;;
62523;SDS011;53689;56.878;60.672;2022-09-01T08:51:06;41.35;;;24.40;;
62523;SDS011;53689;56.878;60.672;2022-09-01T08:54:00;41.63;;;25.05;;
62523;SDS011;53689;56.878;60.672;2022-09-01T08:56:32;43.58;;;24.60;;
62523;SDS011;53689;56.878;60.672;2022-09-01T08:59:00;43.63;;;25.17;;
62523;SDS011;53689;56.878;60.672;2022-09-01T09:01:58;41.65;;;24.10;;
62523;SDS011;53689;56.878;60.672;2022-09-01T09:04:38;39.95;;;23.38;;
62523;SDS011;53689;56.878;60.672;2022-09-01T09:07:21;38.25;;;24.38;;
62523;SDS011;53689;56.878;60.672;2022-09-01T09:10:05;39.33;;;23.88;;
62523;SDS011;53689;56.878;60.672;2022-09-01T09:12:38;39.03;;;24.60;;
62523;SDS011;53689;56.878;60.672;2022-09-01T09:15:19;40.22;;;23.45;;
62523;SDS011;53689;56.878;60.672;2022-09-01T09:17:54;35.95;;;22.42;;
62523;SDS011;53689;56.878;60.672;2022-09-01T09:20:45;37.63;;;23.45;;
62523;SDS011;53689;56.878;60.672;2022-09-01T09:23:19;39.72;;;25.08;;
62523;SDS011;53689;56.878;60.672;2022-09-01T09:25:52;42.47;;;28.67;;
62523;SDS011;53689;56.878;60.672;2022-09-01T09:28:20;40.15;;;27.40;;
62523;SDS011;53689;56.878;60.672;2022-09-01T09:30:47;43.35;;;26.50;;
62523;SDS011;53689;56.878;60.672;2022-09-01T09:36:19;35.78;;;22.88;;
62523;SDS011;53689;56.878;60.672;2022-09-01T09:39:06;35.20;;;23.23;;
62523;SDS011;53689;56.878;60.672;2022-09-01T09:41:36;38.53;;;24.25;;
62523;SDS011;53689;56.878;60.672;2022-09-01T09:44:05;34.70;;;23.13;;
62523;SDS011;53689;56.878;60.672;2022-09-01T09:46:42;43.35;;;25.13;;
62523;SDS011;53689;56.878;60.672;2022-09-01T09:49:12;37.60;;;23.17;;
62523;SDS011;53689;56.878;60.672;2022-09-01T09:51:44;40.92;;;23.88;;
62523;SDS011;53689;56.878;60.672;2022-09-01T09:54:17;39.10;;;24.00;;
62523;SDS011;53689;56.878;60.672;2022-09-01T09:56:47;40.92;;;23.48;;
62523;SDS011;53689;56.878;60.672;2022-09-01T09:59:28;39.53;;;25.77;;
62523;SDS011;53689;56.878;60.672;2022-09-01T10:02:21;32.72;;;23.73;;
62523;SDS011;53689;56.878;60.672;2022-09-01T10:04:54;37.42;;;23.38;;
62523;SDS011;53689;56.878;60.672;2022-09-01T10:07:29;33.95;;;23.30;;
62523;SDS011;53689;56.878;60.672;2022-09-01T10:10:02;39.63;;;23.13;;
62523;SDS011;53689;56.878;60.672;2022-09-01T10:12:33;38.08;;;21.92;;
62523;SDS011;53689;56.878;60.672;2022-09-01T10:15:02;36.33;;;21.42;;
62523;SDS011;53689;56.878;60.672;2022-09-01T10:17:38;38.10;;;24.23;;
62523;SDS011;53689;56.878;60.672;2022-09-01T10:20:12;33.30;;;24.27;;
62523;SDS011;53689;56.878;60.672;2022-09-01T10:22:43;35.63;;;23.13;;
62523;SDS011;53689;56.878;60.672;2022-09-01T10:25:15;32.17;;;21.48;;
62523;SDS011;53689;56.878;60.672;2022-09-01T10:27:46;33.40;;;21.88;;
62523;SDS011;53689;56.878;60.672;2022-09-01T10:30:17;28.17;;;20.70;;
62523;SDS011;53689;56.878;60.672;2022-09-01T10:32:47;30.88;;;21.98;;
62523;SDS011;53689;56.878;60.672;2022-09-01T10:35:22;29.20;;;20.25;;
62523;SDS011;53689;56.878;60.672;2022-09-01T10:37:53;30.02;;;20.05;;
62523;SDS011;53689;56.878;60.672;2022-09-01T10:40:36;33.03;;;21.13;;
62523;SDS011;53689;56.878;60.672;2022-09-01T10:43:22;34.88;;;20.88;;
62523;SDS011;53689;56.878;60.672;2022-09-01T10:46:07;26.27;;;20.08;;
62523;SDS011;53689;56.878;60.672;2022-09-01T10:48:41;28.60;;;20.75;;
62523;SDS011;53689;56.878;60.672;2022-09-01T10:57:41;28.27;;;20.83;;
62523;SDS011;53689;56.878;60.672;2022-09-01T11:03:38;29.42;;;19.80;;
62523;SDS011;53689;56.878;60.672;2022-09-01T11:06:42;26.67;;;19.70;;
62523;SDS011;53689;56.878;60.672;2022-09-01T11:09:40;29.08;;;20.00;;
62523;SDS011;53689;56.878;60.672;2022-09-01T11:12:21;25.92;;;18.77;;
62523;SDS011;53689;56.878;60.672;2022-09-01T11:18:01;25.08;;;19.58;;
62523;SDS011;53689;56.878;60.672;2022-09-01T11:20:35;31.15;;;21.63;;
62523;SDS011;53689;56.878;60.672;2022-09-01T11:23:06;26.25;;;20.15;;
62523;SDS011;53689;56.878;60.672;2022-09-01T11:25:38;28.63;;;20.85;;
62523;SDS011;53689;56.878;60.672;2022-09-01T11:28:09;25.73;;;20.00;;
62523;SDS011;53689;56.878;60.672;2022-09-01T11:30:53;25.80;;;18.00;;
62523;SDS011;53689;56.878;60.672;2022-09-01T11:33:43;24.98;;;18.70;;
62523;SDS011;53689;56.878;60.672;2022-09-01T11:36:22;25.15;;;18.27;;
62523;SDS011;53689;56.878;60.672;2022-09-01T11:38:56;29.40;;;20.95;;
62523;SDS011;53689;56.878;60.672;2022-09-01T11:41:31;29.27;;;22.13;;
62523;SDS011;53689;56.878;60.672;2022-09-01T11:44:06;32.03;;;22.38;;
62523;SDS011;53689;56.878;60.672;2022-09-01T11:46:41;28.27;;;20.05;;
62523;SDS011;53689;56.878;60.672;2022-09-01T11:49:16;28.27;;;19.00;;
62523;SDS011;53689;56.878;60.672;2022-09-01T11:51:52;24.35;;;18.40;;
62523;SDS011;53689;56.878;60.672;2022-09-01T11:54:19;22.77;;;17.92;;
62523;SDS011;53689;56.878;60.672;2022-09-01T11:56:48;26.55;;;16.98;;
62523;SDS011;53689;56.878;60.672;2022-09-01T11:59:28;24.63;;;17.27;;
62523;SDS011;53689;56.878;60.672;2022-09-01T12:01:58;26.60;;;17.63;;
62523;SDS011;53689;56.878;60.672;2022-09-01T12:04:29;25.35;;;16.42;;
62523;SDS011;53689;56.878;60.672;2022-09-01T12:06:59;25.80;;;17.30;;
62523;SDS011;53689;56.878;60.672;2022-09-01T12:09:33;21.88;;;16.95;;
62523;SDS011;53689;56.878;60.672;2022-09-01T12:12:04;23.00;;;17.95;;
62523;SDS011;53689;56.878;60.672;2022-09-01T12:14:33;23.25;;;17.10;;
62523;SDS011;53689;56.878;60.672;2022-09-01T12:17:22;23.25;;;17.13;;
62523;SDS011;53689;56.878;60.672;2022-09-01T12:19:49;23.63;;;17.92;;
62523;SDS011;53689;56.878;60.672;2022-09-01T12:22:17;26.30;;;17.48;;
62523;SDS011;53689;56.878;60.672;2022-09-01T12:24:47;26.33;;;18.08;;
62523;SDS011;53689;56.878;60.672;2022-09-01T12:27:15;22.77;;;16.77;;
62523;SDS011;53689;56.878;60.672;2022-09-01T12:29:43;20.02;;;15.77;;
62523;SDS011;53689;56.878;60.672;2022-09-01T12:32:12;22.88;;;16.27;;
62523;SDS011;53689;56.878;60.672;2022-09-01T12:34:44;22.85;;;15.73;;
62523;SDS011;53689;56.878;60.672;2022-09-01T12:37:18;20.02;;;15.10;;
62523;SDS011;53689;56.878;60.672;2022-09-01T12:39:48;21.85;;;15.75;;
62523;SDS011;53689;56.878;60.672;2022-09-01T12:42:24;20.90;;;15.23;;
62523;SDS011;53689;56.878;60.672;2022-09-01T12:44:54;20.75;;;14.90;;
62523;SDS011;53689;56.878;60.672;2022-09-01T12:50:33;19.50;;;14.45;;
62523;SDS011;53689;56.878;60.672;2022-09-01T12:53:03;17.80;;;13.55;;
62523;SDS011;53689;56.878;60.672;2022-09-01T12:55:50;18.20;;;12.82;;
62523;SDS011;53689;56.878;60.672;2022-09-01T12:58:23;18.77;;;13.13;;
62523;SDS011;53689;56.878;60.672;2022-09-01T13:00:53;18.08;;;13.02;;
62523;SDS011;53689;56.878;60.672;2022-09-01T13:03:22;14.40;;;12.20;;
62523;SDS011;53689;56.878;60.672;2022-09-01T13:05:52;15.90;;;11.80;;
62523;SDS011;53689;56.878;60.672;2022-09-01T13:08:20;17.33;;;11.80;;
62523;SDS011;53689;56.878;60.672;2022-09-01T13:10:50;13.43;;;11.80;;
62523;SDS011;53689;56.878;60.672;2022-09-01T13:13:19;17.60;;;11.88;;
62523;SDS011;53689;56.878;60.672;2022-09-01T13:15:48;15.32;;;11.40;;
62523;SDS011;53689;56.878;60.672;2022-09-01T13:18:17;14.13;;;12.10;;
62523;SDS011;53689;56.878;60.672;2022-09-01T13:20:46;14.15;;;12.10;;
62523;SDS011;53689;56.878;60.672;2022-09-01T13:23:15;15.20;;;12.60;;
62523;SDS011;53689;56.878;60.672;2022-09-01T13:25:43;18.48;;;13.43;;
62523;SDS011;53689;56.878;60.672;2022-09-01T13:28:11;17.88;;;14.38;;
62523;SDS011;53689;56.878;60.672;2022-09-01T13:30:39;14.15;;;12.60;;
62523;SDS011;53689;56.878;60.672;2022-09-01T13:33:07;12.15;;;10.57;;
62523;SDS011;53689;56.878;60.672;2022-09-01T13:35:50;15.57;;;11.48;;
62523;SDS011;53689;56.878;60.672;2022-09-01T13:38:20;13.65;;;11.18;;
62523;SDS011;53689;56.878;60.672;2022-09-01T13:40:51;14.18;;;11.35;;
62523;SDS011;53689;56.878;60.672;2022-09-01T13:43:19;16.35;;;10.55;;
62523;SDS011;53689;56.878;60.672;2022-09-01T13:45:49;14.02;;;10.57;;
62523;SDS011;53689;56.878;60.672;2022-09-01T13:48:17;13.82;;;10.23;;
62523;SDS011;53689;56.878;60.672;2022-09-01T13:50:48;16.40;;;11.15;;
62523;SDS011;53689;56.878;60.672;2022-09-01T13:53:38;14.02;;;10.55;;
62523;SDS011;53689;56.878;60.672;2022-09-01T13:56:05;14.00;;;11.38;;
62523;SDS011;53689;56.878;60.672;2022-09-01T13:58:33;16.13;;;11.80;;
62523;SDS011;53689;56.878;60.672;2022-09-01T14:01:00;17.30;;;10.80;;
62523;SDS011;53689;56.878;60.672;2022-09-01T14:03:28;20.95;;;12.52;;
62523;SDS011;53689;56.878;60.672;2022-09-01T14:05:55;18.30;;;11.07;;
62523;SDS011;53689;56.878;60.672;2022-09-01T14:08:22;16.33;;;10.70;;
62523;SDS011;53689;56.878;60.672;2022-09-01T14:10:52;23.20;;;11.65;;
62523;SDS011;53689;56.878;60.672;2022-09-01T14:13:20;13.80;;;11.15;;
62523;SDS011;53689;56.878;60.672;2022-09-01T14:18:16;22.77;;;17.05;;
62523;SDS011;53689;56.878;60.672;2022-09-01T14:20:45;16.10;;;13.07;;
62523;SDS011;53689;56.878;60.672;2022-09-01T14:25:41;16.35;;;10.82;;
62523;SDS011;53689;56.878;60.672;2022-09-01T14:28:12;61.05;;;53.00;;
62523;SDS011;53689;56.878;60.672;2022-09-01T14:30:42;20.45;;;16.48;;
62523;SDS011;53689;56.878;60.672;2022-09-01T14:33:10;16.02;;;13.00;;
62523;SDS011;53689;56.878;60.672;2022-09-01T14:35:38;14.55;;;11.60;;
62523;SDS011;53689;56.878;60.672;2022-09-01T14:40:35;15.25;;;11.10;;
62523;SDS011;53689;56.878;60.672;2022-09-01T14:43:03;16.17;;;11.85;;
62523;SDS011;53689;56.878;60.672;2022-09-01T14:45:32;14.27;;;10.73;;
62523;SDS011;53689;56.878;60.672;2022-09-01T14:48:00;16.52;;;11.00;;
62523;SDS011;53689;56.878;60.672;2022-09-01T14:50:28;13.98;;;11.05;;
62523;SDS011;53689;56.878;60.672;2022-09-01T14:52:57;13.97;;;10.77;;
62523;SDS011;53689;56.878;60.672;2022-09-01T14:55:26;15.85;;;11.13;;
62523;SDS011;53689;56.878;60.672;2022-09-01T14:57:54;18.40;;;10.57;;
62523;SDS011;53689;56.878;60.672;2022-09-01T15:00:23;19.50;;;10.90;;
62523;SDS011;53689;56.878;60.672;2022-09-01T15:02:52;20.33;;;13.60;;
62523;SDS011;53689;56.878;60.672;2022-09-01T15:07:48;39.80;;;32.47;;
62523;SDS011;53689;56.878;60.672;2022-09-01T15:10:17;25.08;;;19.58;;
62523;SDS011;53689;56.878;60.672;2022-09-01T15:12:51;19.02;;;15.02;;
62523;SDS011;53689;56.878;60.672;2022-09-01T15:15:20;21.60;;;16.75;;
62523;SDS011;53689;56.878;60.672;2022-09-01T15:17:48;19.48;;;14.68;;
62523;SDS011;53689;56.878;60.672;2022-09-01T15:20:17;18.00;;;14.32;;
62523;SDS011;53689;56.878;60.672;2022-09-01T15:22:45;18.00;;;12.85;;
62523;SDS011;53689;56.878;60.672;2022-09-01T15:25:13;19.20;;;12.85;;